F/V Quentin Gregoire — FMIU — position and weather

sailwx.info

Track history (hours):
 
Tides and Currents Weather Stations Pressure Air Temp Water Temp Dewpoint Dewpoint Depression Visibility Wind Speed Wind Dir Waves Ship Positions

F/V Quentin Gregoire

Last reported at 2018-Jun-18 10:58 UTC. Time now 2018-Jun-18 13:19 UTC.
Position N 46°10' W 002°48'.

Length 18 m.

Type: Fishing. MMSI: 228240600.

Date/timePositionNaut miles runAvg speedWind from/ knotsBaromVisibWave heightAir tempDewpointWater temp
2018-Jun-18 10:58N 46°10' W 002°48'2 2.5
2018-Jun-18 09:59N 46°13' W 002°47'2 1.9
2018-Jun-18 08:48N 46°11' W 002°49'6 2.3
2018-Jun-18 06:03N 46°17' W 002°48'0 3.8
2018-Jun-18 06:00N 46°17' W 002°48'2 3.8
2018-Jun-18 05:28N 46°19' W 002°49'2 3.8
2018-Jun-18 04:57N 46°21' W 002°50'2 4.0
2018-Jun-18 04:27N 46°23' W 002°51'4 7.2
2018-Jun-18 03:50N 46°27' W 002°50'3 8.3
2018-Jun-18 03:27N 46°31' W 002°49'6 8.2
2018-Jun-18 02:44N 46°36' W 002°47'39 8.8
2018-Jun-17 22:22N 47°14' W 002°36'4 9.3
2018-Jun-17 21:59N 47°18' W 002°35'3 5.3
2018-Jun-17 21:30N 47°18' W 002°31'0 0.5
2018-Jun-17 20:58N 47°18' W 002°31'0 0.0
2018-Jun-17 20:30N 47°18' W 002°31'0 0.0
2018-Jun-17 19:54N 47°18' W 002°31'0 0.0
2018-Jun-17 19:30N 47°18' W 002°31'0 0.0
2018-Jun-17 18:57N 47°18' W 002°31'0 0.0
2018-Jun-17 18:23N 47°18' W 002°31'0 0.0
2018-Jun-17 17:58N 47°18' W 002°31'0 0.0
2018-Jun-17 17:25N 47°18' W 002°31'0 0.0
2018-Jun-17 16:59N 47°18' W 002°31'0 0.0
2018-Jun-17 16:26N 47°18' W 002°31'0 0.0
2018-Jun-17 15:55N 47°18' W 002°31'0 0.0
2018-Jun-17 15:25N 47°18' W 002°31'0 0.0
2018-Jun-17 13:10N 47°18' W 002°31'0 0.0
2018-Jun-17 12:58N 47°18' W 002°31'0 0.0
2018-Jun-17 12:30N 47°18' W 002°31'0 0.0
2018-Jun-17 12:00N 47°18' W 002°31'0 0.0
2018-Jun-17 11:30N 47°18' W 002°31'0 0.0
2018-Jun-17 10:59N 47°18' W 002°31'0 0.0
2018-Jun-17 10:28N 47°18' W 002°31'0 0.0
2018-Jun-17 09:43N 47°18' W 002°31'0 0.0
2018-Jun-17 09:16N 47°18' W 002°31'0 0.0
2018-Jun-17 06:52N 47°18' W 002°31'0 0.0
2018-Jun-17 06:21N 47°18' W 002°31'0 0.0
2018-Jun-17 05:58N 47°18' W 002°31'0 0.0
2018-Jun-17 05:19N 47°18' W 002°31'0 0.4
2018-Jun-17 04:58N 47°18' W 002°31'0 0.0
2018-Jun-17 04:25N 47°18' W 002°31'0 0.1
2018-Jun-17 04:01N 47°18' W 002°31'0 0.0
2018-Jun-17 03:31N 47°18' W 002°31'0 0.0
2018-Jun-17 02:53N 47°18' W 002°31'1 2.1
2018-Jun-17 02:30N 47°19' W 002°31'1 1.8
2018-Jun-17 02:00N 47°19' W 002°32'1 2.4
2018-Jun-17 01:30N 47°19' W 002°34'4 7.5
2018-Jun-17 01:00N 47°19' W 002°39'5 9.3
2018-Jun-17 00:30N 47°18' W 002°46'4 8.8
2018-Jun-17 00:00N 47°17' W 002°53'4 8.9
2018-Jun-16 23:30N 47°16' W 002°59'4 8.3
2018-Jun-16 23:00N 47°16' W 003°05'4 7.4
2018-Jun-16 22:29N 47°16' W 003°10'4 7.3
2018-Jun-16 21:57N 47°15' W 003°16'4 7.1
2018-Jun-16 21:25N 47°14' W 003°22'3 6.8
2018-Jun-16 20:59N 47°14' W 003°26'5 6.8
2018-Jun-16 20:12N 47°14' W 003°34'10 2.8
2018-Jun-16 16:38N 47°14' W 003°49'1 0.1
2018-Jun-16 06:10N 47°13' W 003°48'3 2.7
2018-Jun-16 05:04N 47°13' W 003°43'0 2.8
2018-Jun-16 04:59N 47°13' W 003°43'2 2.6
2018-Jun-16 04:10N 47°12' W 003°45'3 2.9
2018-Jun-16 03:00N 47°10' W 003°41'3 3.2
2018-Jun-16 02:13N 47°12' W 003°40'1 3.4
2018-Jun-16 01:54N 47°13' W 003°40'2 4.2
2018-Jun-16 01:30N 47°13' W 003°43'4 2.2
2018-Jun-15 23:41N 47°09' W 003°43'1 3.6
2018-Jun-15 23:29N 47°10' W 003°42'4 3.6
2018-Jun-15 22:31N 47°13' W 003°42'0 3.8
2018-Jun-15 22:30N 47°13' W 003°42'6 0.5
2018-Jun-15 09:59N 47°08' W 003°46'2 3.0
2018-Jun-15 09:27N 47°09' W 003°44'3 3.2
2018-Jun-15 08:24N 47°11' W 003°40'2 3.8
2018-Jun-15 07:46N 47°13' W 003°40'1 3.4
2018-Jun-15 07:26N 47°13' W 003°38'9 8.9
2018-Jun-15 06:22N 47°15' W 003°24'4 9.0
2018-Jun-15 05:59N 47°15' W 003°19'5 9.1
2018-Jun-15 05:28N 47°15' W 003°12'4 8.9
2018-Jun-15 05:00N 47°16' W 003°06'5 9.1
2018-Jun-15 04:30N 47°16' W 002°59'4 8.9
2018-Jun-15 04:00N 47°17' W 002°53'5 8.8
2018-Jun-15 03:27N 47°18' W 002°46'4 9.0
2018-Jun-15 03:00N 47°19' W 002°40'5 9.2
2018-Jun-15 02:30N 47°19' W 002°33'2 4.3
2018-Jun-15 01:59N 47°18' W 002°31'0 0.0
2018-Jun-15 01:30N 47°18' W 002°31'1 2.5
2018-Jun-15 01:00N 47°19' W 002°32'4 8.2
2018-Jun-15 00:29N 47°19' W 002°38'5 9.5
2018-Jun-15 00:00N 47°17' W 002°44'5 9.4
2018-Jun-14 23:30N 47°15' W 002°50'4 9.1
2018-Jun-14 23:00N 47°12' W 002°56'5 9.1
2018-Jun-14 22:29N 47°10' W 003°01'4 8.9
2018-Jun-14 22:00N 47°07' W 003°06'24 1.7
2018-Jun-14 08:02N 47°02' W 003°41'2 3.4
2018-Jun-14 07:32N 47°02' W 003°39'1 3.8
2018-Jun-14 07:22N 47°02' W 003°38'2 3.5
2018-Jun-14 06:46N 47°04' W 003°38'1 3.7
2018-Jun-14 06:29N 47°05' W 003°39'2 3.7
2018-Jun-14 05:59N 47°07' W 003°39'1 1.4
2018-Jun-14 05:12N 47°08' W 003°40'2 3.5
2018-Jun-14 04:46N 47°07' W 003°42'1 3.7
2018-Jun-14 04:30N 47°06' W 003°43'2 3.5
2018-Jun-14 03:50N 47°05' W 003°46'2 2.4
2018-Jun-14 03:06N 47°03' W 003°46'0 3.5
2018-Jun-14 02:58N 47°03' W 003°45'2 3.5
2018-Jun-14 02:30N 47°04' W 003°44'0 0.3
2018-Jun-14 01:01N 47°04' W 003°43'0 3.8
2018-Jun-14 00:57N 47°04' W 003°43'2 3.5
2018-Jun-14 00:25N 47°03' W 003°41'3 2.5
2018-Jun-13 23:07N 47°06' W 003°39'1 3.6
2018-Jun-13 22:52N 47°07' W 003°39'9 3.4
2018-Jun-13 20:23N 47°15' W 003°39'1 2.7
2018-Jun-13 19:52N 47°15' W 003°41'9 1.4
2018-Jun-13 13:48N 47°07' W 003°42'4 2.7
2018-Jun-13 12:28N 47°03' W 003°42'5 1.1
2018-Jun-13 08:16N 47°07' W 003°39'1 3.8
2018-Jun-13 07:59N 47°08' W 003°39'12 6.0
2018-Jun-13 06:00N 47°12' W 003°23'6 9.4
2018-Jun-13 05:21N 47°14' W 003°14'4 9.4
2018-Jun-13 04:56N 47°14' W 003°08'4 9.5
2018-Jun-13 04:30N 47°15' W 003°02'5 9.1
2018-Jun-13 04:00N 47°16' W 002°56'4 8.7
2018-Jun-13 03:30N 47°17' W 002°49'4 9.0
2018-Jun-13 03:00N 47°18' W 002°43'4 9.1
2018-Jun-13 02:30N 47°19' W 002°37'4 7.6
2018-Jun-13 02:00N 47°18' W 002°31'0 0.8
2018-Jun-13 01:30N 47°18' W 002°31'0 0.9
2018-Jun-13 01:00N 47°18' W 002°31'4 8.6
2018-Jun-13 00:30N 47°19' W 002°37'510.0
2018-Jun-13 00:00N 47°18' W 002°45'5 9.8
2018-Jun-12 23:30N 47°17' W 002°52'5 9.1
2018-Jun-12 22:59N 47°16' W 002°58'4 9.4
2018-Jun-12 22:30N 47°15' W 003°05'5 9.5
2018-Jun-12 22:00N 47°14' W 003°12'5 9.3
2018-Jun-12 21:30N 47°13' W 003°19'4 9.2
2018-Jun-12 21:00N 47°12' W 003°25'6 7.9
2018-Jun-12 20:15N 47°10' W 003°33'2 6.3
2018-Jun-12 20:00N 47°10' W 003°36'4513.9
2018-Jun-12 16:46N 47°18' W 002°31'51 3.6
2018-Jun-12 02:40N 47°11' W 003°45'3 3.8
2018-Jun-12 01:52N 47°14' W 003°46'1 2.2
2018-Jun-12 01:17N 47°14' W 003°44'1 2.1
2018-Jun-12 00:56N 47°15' W 003°43'1 1.8
2018-Jun-12 00:23N 47°15' W 003°42'1 3.6
2018-Jun-12 00:00N 47°14' W 003°42'1 1.8
2018-Jun-11 23:29N 47°15' W 003°41'3 2.3
2018-Jun-11 22:12N 47°14' W 003°46'1 3.4
2018-Jun-11 21:55N 47°13' W 003°46'2 3.3
2018-Jun-11 21:28N 47°12' W 003°45'33 1.7
2018-Jun-11 01:46N 47°13' W 002°57'2 8.8
2018-Jun-11 01:30N 47°14' W 002°54'4 8.6
2018-Jun-11 01:00N 47°16' W 002°48'4 8.8
2018-Jun-11 00:30N 47°19' W 002°42'4 8.8
2018-Jun-11 00:00N 47°19' W 002°36'3 6.9
2018-Jun-10 23:30N 47°18' W 002°31'0 0.1
2018-Jun-10 22:59N 47°18' W 002°31'0 0.0
2018-Jun-10 22:29N 47°18' W 002°31'0 0.0
2018-Jun-10 21:58N 47°18' W 002°31'0 0.0
2018-Jun-10 21:27N 47°18' W 002°31'0 0.0
2018-Jun-10 21:00N 47°18' W 002°31'0 0.0
2018-Jun-10 20:30N 47°18' W 002°31'0 0.0
2018-Jun-10 20:00N 47°18' W 002°31'0 0.0
2018-Jun-10 19:30N 47°18' W 002°31'0 0.0
2018-Jun-10 19:00N 47°18' W 002°31'0 0.0
2018-Jun-10 18:29N 47°18' W 002°31'0 0.0
2018-Jun-10 17:59N 47°18' W 002°31'0 0.0
2018-Jun-10 17:30N 47°18' W 002°31'0 0.0
2018-Jun-10 17:00N 47°18' W 002°31'0 0.0
2018-Jun-10 16:30N 47°18' W 002°31'0 0.0
2018-Jun-10 16:00N 47°18' W 002°31'0 0.0
2018-Jun-10 14:39N 47°18' W 002°31'0 0.0
2018-Jun-10 14:00N 47°18' W 002°31'0 0.0
2018-Jun-10 13:30N 47°18' W 002°31'0 0.0
2018-Jun-10 11:36N 47°18' W 002°31'0 0.0
2018-Jun-10 11:30N 47°18' W 002°31'0 0.0
2018-Jun-10 11:00N 47°18' W 002°31'0 0.0
2018-Jun-10 10:30N 47°18' W 002°31'0 0.0
2018-Jun-10 09:56N 47°18' W 002°31'0 0.0
2018-Jun-10 09:29N 47°18' W 002°31'0 0.0
2018-Jun-10 09:00N 47°18' W 002°31'0 0.0
2018-Jun-10 08:30N 47°18' W 002°31'0 0.0
2018-Jun-10 08:00N 47°18' W 002°31'0 0.0
2018-Jun-10 07:30N 47°18' W 002°31'0 0.0
2018-Jun-10 06:58N 47°18' W 002°31'0 0.0
2018-Jun-10 06:30N 47°18' W 002°31'0 0.0
2018-Jun-10 05:55N 47°18' W 002°31'0 0.0
2018-Jun-10 05:30N 47°18' W 002°31'0 0.0
2018-Jun-10 04:59N 47°18' W 002°31'0 0.0
2018-Jun-10 04:28N 47°18' W 002°31'0 0.1
2018-Jun-10 03:57N 47°18' W 002°31'0 0.2
2018-Jun-10 03:28N 47°18' W 002°31'0 0.0
2018-Jun-10 03:00N 47°18' W 002°31'0 0.0
2018-Jun-10 02:30N 47°18' W 002°31'0 0.0
2018-Jun-10 02:00N 47°18' W 002°31'0 0.1
2018-Jun-10 01:29N 47°18' W 002°31'3 6.5
2018-Jun-10 01:00N 47°17' W 002°35'5 9.0
2018-Jun-10 00:30N 47°13' W 002°39'6 9.1
2018-Jun-09 23:52N 47°08' W 002°42'31 7.9
2018-Jun-09 19:58N 46°40' W 003°01'8 3.5
2018-Jun-09 17:49N 46°32' W 002°60'32 1.5
2018-Jun-08 19:51N 47°01' W 003°22'3 8.9
2018-Jun-08 19:29N 47°03' W 003°25'2 3.4
2018-Jun-08 19:00N 47°01' W 003°25'2 3.9
2018-Jun-08 18:30N 46°59' W 003°26'2 3.7
2018-Jun-08 18:00N 46°60' W 003°28'2 3.8
2018-Jun-08 17:31N 46°60' W 003°31'2 3.7
2018-Jun-08 17:00N 46°59' W 003°34'3 3.7
2018-Jun-08 16:07N 46°56' W 003°36'0 3.9
2018-Jun-08 16:01N 46°56' W 003°36'1 1.5
2018-Jun-08 15:21N 46°55' W 003°34'4 4.0
2018-Jun-08 14:27N 46°56' W 003°29'1 2.8
2018-Jun-08 13:55N 46°57' W 003°31'2 3.6
2018-Jun-08 13:23N 46°57' W 003°34'2 3.6
2018-Jun-08 12:55N 46°57' W 003°36'  
Track history (hours):
 
Tides and Currents Weather Stations Pressure Air Temp Water Temp Dewpoint Dewpoint Depression Visibility Wind Speed Wind Dir Waves Ship Positions

F/V Quentin Gregoire

Last reported at 2018-Jun-18 10:58 UTC. Time now 2018-Jun-18 13:19 UTC.
Position N 46°10' W 002°48'.

Length 18 m.

Type: Fishing. MMSI: 228240600.

Date/timePositionNaut miles runAvg speedWind from/ knotsBaromVisibWave heightAir tempDewpointWater temp
2018-Jun-18 10:58N 46°10' W 002°48'2 2.5
2018-Jun-18 09:59N 46°13' W 002°47'2 1.9
2018-Jun-18 08:48N 46°11' W 002°49'6 2.3
2018-Jun-18 06:03N 46°17' W 002°48'0 3.8
2018-Jun-18 06:00N 46°17' W 002°48'2 3.8
2018-Jun-18 05:28N 46°19' W 002°49'2 3.8
2018-Jun-18 04:57N 46°21' W 002°50'2 4.0
2018-Jun-18 04:27N 46°23' W 002°51'4 7.2
2018-Jun-18 03:50N 46°27' W 002°50'3 8.3
2018-Jun-18 03:27N 46°31' W 002°49'6 8.2
2018-Jun-18 02:44N 46°36' W 002°47'39 8.8
2018-Jun-17 22:22N 47°14' W 002°36'4 9.3
2018-Jun-17 21:59N 47°18' W 002°35'3 5.3
2018-Jun-17 21:30N 47°18' W 002°31'0 0.5
2018-Jun-17 20:58N 47°18' W 002°31'0 0.0
2018-Jun-17 20:30N 47°18' W 002°31'0 0.0
2018-Jun-17 19:54N 47°18' W 002°31'0 0.0
2018-Jun-17 19:30N 47°18' W 002°31'0 0.0
2018-Jun-17 18:57N 47°18' W 002°31'0 0.0
2018-Jun-17 18:23N 47°18' W 002°31'0 0.0
2018-Jun-17 17:58N 47°18' W 002°31'0 0.0
2018-Jun-17 17:25N 47°18' W 002°31'0 0.0
2018-Jun-17 16:59N 47°18' W 002°31'0 0.0
2018-Jun-17 16:26N 47°18' W 002°31'0 0.0
2018-Jun-17 15:55N 47°18' W 002°31'0 0.0
2018-Jun-17 15:25N 47°18' W 002°31'0 0.0
2018-Jun-17 13:10N 47°18' W 002°31'0 0.0
2018-Jun-17 12:58N 47°18' W 002°31'0 0.0
2018-Jun-17 12:30N 47°18' W 002°31'0 0.0
2018-Jun-17 12:00N 47°18' W 002°31'0 0.0
2018-Jun-17 11:30N 47°18' W 002°31'0 0.0
2018-Jun-17 10:59N 47°18' W 002°31'0 0.0
2018-Jun-17 10:28N 47°18' W 002°31'0 0.0
2018-Jun-17 09:43N 47°18' W 002°31'0 0.0
2018-Jun-17 09:16N 47°18' W 002°31'0 0.0
2018-Jun-17 06:52N 47°18' W 002°31'0 0.0
2018-Jun-17 06:21N 47°18' W 002°31'0 0.0
2018-Jun-17 05:58N 47°18' W 002°31'0 0.0
2018-Jun-17 05:19N 47°18' W 002°31'0 0.4
2018-Jun-17 04:58N 47°18' W 002°31'0 0.0
2018-Jun-17 04:25N 47°18' W 002°31'0 0.1
2018-Jun-17 04:01N 47°18' W 002°31'0 0.0
2018-Jun-17 03:31N 47°18' W 002°31'0 0.0
2018-Jun-17 02:53N 47°18' W 002°31'1 2.1
2018-Jun-17 02:30N 47°19' W 002°31'1 1.8
2018-Jun-17 02:00N 47°19' W 002°32'1 2.4
2018-Jun-17 01:30N 47°19' W 002°34'4 7.5
2018-Jun-17 01:00N 47°19' W 002°39'5 9.3
2018-Jun-17 00:30N 47°18' W 002°46'4 8.8
2018-Jun-17 00:00N 47°17' W 002°53'4 8.9
2018-Jun-16 23:30N 47°16' W 002°59'4 8.3
2018-Jun-16 23:00N 47°16' W 003°05'4 7.4
2018-Jun-16 22:29N 47°16' W 003°10'4 7.3
2018-Jun-16 21:57N 47°15' W 003°16'4 7.1
2018-Jun-16 21:25N 47°14' W 003°22'3 6.8
2018-Jun-16 20:59N 47°14' W 003°26'5 6.8
2018-Jun-16 20:12N 47°14' W 003°34'10 2.8
2018-Jun-16 16:38N 47°14' W 003°49'1 0.1
2018-Jun-16 06:10N 47°13' W 003°48'3 2.7
2018-Jun-16 05:04N 47°13' W 003°43'0 2.8
2018-Jun-16 04:59N 47°13' W 003°43'2 2.6
2018-Jun-16 04:10N 47°12' W 003°45'3 2.9
2018-Jun-16 03:00N 47°10' W 003°41'3 3.2
2018-Jun-16 02:13N 47°12' W 003°40'1 3.4
2018-Jun-16 01:54N 47°13' W 003°40'2 4.2
2018-Jun-16 01:30N 47°13' W 003°43'4 2.2
2018-Jun-15 23:41N 47°09' W 003°43'1 3.6
2018-Jun-15 23:29N 47°10' W 003°42'4 3.6
2018-Jun-15 22:31N 47°13' W 003°42'0 3.8
2018-Jun-15 22:30N 47°13' W 003°42'6 0.5
2018-Jun-15 09:59N 47°08' W 003°46'2 3.0
2018-Jun-15 09:27N 47°09' W 003°44'3 3.2
2018-Jun-15 08:24N 47°11' W 003°40'2 3.8
2018-Jun-15 07:46N 47°13' W 003°40'1 3.4
2018-Jun-15 07:26N 47°13' W 003°38'9 8.9
2018-Jun-15 06:22N 47°15' W 003°24'4 9.0
2018-Jun-15 05:59N 47°15' W 003°19'5 9.1
2018-Jun-15 05:28N 47°15' W 003°12'4 8.9
2018-Jun-15 05:00N 47°16' W 003°06'5 9.1
2018-Jun-15 04:30N 47°16' W 002°59'4 8.9
2018-Jun-15 04:00N 47°17' W 002°53'5 8.8
2018-Jun-15 03:27N 47°18' W 002°46'4 9.0
2018-Jun-15 03:00N 47°19' W 002°40'5 9.2
2018-Jun-15 02:30N 47°19' W 002°33'2 4.3
2018-Jun-15 01:59N 47°18' W 002°31'0 0.0
2018-Jun-15 01:30N 47°18' W 002°31'1 2.5
2018-Jun-15 01:00N 47°19' W 002°32'4 8.2
2018-Jun-15 00:29N 47°19' W 002°38'5 9.5
2018-Jun-15 00:00N 47°17' W 002°44'5 9.4
2018-Jun-14 23:30N 47°15' W 002°50'4 9.1
2018-Jun-14 23:00N 47°12' W 002°56'5 9.1
2018-Jun-14 22:29N 47°10' W 003°01'4 8.9
2018-Jun-14 22:00N 47°07' W 003°06'24 1.7
2018-Jun-14 08:02N 47°02' W 003°41'2 3.4
2018-Jun-14 07:32N 47°02' W 003°39'1 3.8
2018-Jun-14 07:22N 47°02' W 003°38'2 3.5
2018-Jun-14 06:46N 47°04' W 003°38'1 3.7
2018-Jun-14 06:29N 47°05' W 003°39'2 3.7
2018-Jun-14 05:59N 47°07' W 003°39'1 1.4
2018-Jun-14 05:12N 47°08' W 003°40'2 3.5
2018-Jun-14 04:46N 47°07' W 003°42'1 3.7
2018-Jun-14 04:30N 47°06' W 003°43'2 3.5
2018-Jun-14 03:50N 47°05' W 003°46'2 2.4
2018-Jun-14 03:06N 47°03' W 003°46'0 3.5
2018-Jun-14 02:58N 47°03' W 003°45'2 3.5
2018-Jun-14 02:30N 47°04' W 003°44'0 0.3
2018-Jun-14 01:01N 47°04' W 003°43'0 3.8
2018-Jun-14 00:57N 47°04' W 003°43'2 3.5
2018-Jun-14 00:25N 47°03' W 003°41'3 2.5
2018-Jun-13 23:07N 47°06' W 003°39'1 3.6
2018-Jun-13 22:52N 47°07' W 003°39'9 3.4
2018-Jun-13 20:23N 47°15' W 003°39'1 2.7
2018-Jun-13 19:52N 47°15' W 003°41'9 1.4
2018-Jun-13 13:48N 47°07' W 003°42'4 2.7
2018-Jun-13 12:28N 47°03' W 003°42'5 1.1
2018-Jun-13 08:16N 47°07' W 003°39'1 3.8
2018-Jun-13 07:59N 47°08' W 003°39'12 6.0
2018-Jun-13 06:00N 47°12' W 003°23'6 9.4
2018-Jun-13 05:21N 47°14' W 003°14'4 9.4
2018-Jun-13 04:56N 47°14' W 003°08'4 9.5
2018-Jun-13 04:30N 47°15' W 003°02'5 9.1
2018-Jun-13 04:00N 47°16' W 002°56'4 8.7
2018-Jun-13 03:30N 47°17' W 002°49'4 9.0
2018-Jun-13 03:00N 47°18' W 002°43'4 9.1
2018-Jun-13 02:30N 47°19' W 002°37'4 7.6
2018-Jun-13 02:00N 47°18' W 002°31'0 0.8
2018-Jun-13 01:30N 47°18' W 002°31'0 0.9
2018-Jun-13 01:00N 47°18' W 002°31'4 8.6
2018-Jun-13 00:30N 47°19' W 002°37'510.0
2018-Jun-13 00:00N 47°18' W 002°45'5 9.8
2018-Jun-12 23:30N 47°17' W 002°52'5 9.1
2018-Jun-12 22:59N 47°16' W 002°58'4 9.4
2018-Jun-12 22:30N 47°15' W 003°05'5 9.5
2018-Jun-12 22:00N 47°14' W 003°12'5 9.3
2018-Jun-12 21:30N 47°13' W 003°19'4 9.2
2018-Jun-12 21:00N 47°12' W 003°25'6 7.9
2018-Jun-12 20:15N 47°10' W 003°33'2 6.3
2018-Jun-12 20:00N 47°10' W 003°36'4513.9
2018-Jun-12 16:46N 47°18' W 002°31'51 3.6
2018-Jun-12 02:40N 47°11' W 003°45'3 3.8
2018-Jun-12 01:52N 47°14' W 003°46'1 2.2
2018-Jun-12 01:17N 47°14' W 003°44'1 2.1
2018-Jun-12 00:56N 47°15' W 003°43'1 1.8
2018-Jun-12 00:23N 47°15' W 003°42'1 3.6
2018-Jun-12 00:00N 47°14' W 003°42'1 1.8
2018-Jun-11 23:29N 47°15' W 003°41'3 2.3
2018-Jun-11 22:12N 47°14' W 003°46'1 3.4
2018-Jun-11 21:55N 47°13' W 003°46'2 3.3
2018-Jun-11 21:28N 47°12' W 003°45'33 1.7
2018-Jun-11 01:46N 47°13' W 002°57'2 8.8
2018-Jun-11 01:30N 47°14' W 002°54'4 8.6
2018-Jun-11 01:00N 47°16' W 002°48'4 8.8
2018-Jun-11 00:30N 47°19' W 002°42'4 8.8
2018-Jun-11 00:00N 47°19' W 002°36'3 6.9
2018-Jun-10 23:30N 47°18' W 002°31'0 0.1
2018-Jun-10 22:59N 47°18' W 002°31'0 0.0
2018-Jun-10 22:29N 47°18' W 002°31'0 0.0
2018-Jun-10 21:58N 47°18' W 002°31'0 0.0
2018-Jun-10 21:27N 47°18' W 002°31'0 0.0
2018-Jun-10 21:00N 47°18' W 002°31'0 0.0
2018-Jun-10 20:30N 47°18' W 002°31'0 0.0
2018-Jun-10 20:00N 47°18' W 002°31'0 0.0
2018-Jun-10 19:30N 47°18' W 002°31'0 0.0
2018-Jun-10 19:00N 47°18' W 002°31'0 0.0
2018-Jun-10 18:29N 47°18' W 002°31'0 0.0
2018-Jun-10 17:59N 47°18' W 002°31'0 0.0
2018-Jun-10 17:30N 47°18' W 002°31'0 0.0
2018-Jun-10 17:00N 47°18' W 002°31'0 0.0
2018-Jun-10 16:30N 47°18' W 002°31'0 0.0
2018-Jun-10 16:00N 47°18' W 002°31'0 0.0
2018-Jun-10 14:39N 47°18' W 002°31'0 0.0
2018-Jun-10 14:00N 47°18' W 002°31'0 0.0
2018-Jun-10 13:30N 47°18' W 002°31'0 0.0
2018-Jun-10 11:36N 47°18' W 002°31'0 0.0
2018-Jun-10 11:30N 47°18' W 002°31'0 0.0
2018-Jun-10 11:00N 47°18' W 002°31'0 0.0
2018-Jun-10 10:30N 47°18' W 002°31'0 0.0
2018-Jun-10 09:56N 47°18' W 002°31'0 0.0
2018-Jun-10 09:29N 47°18' W 002°31'0 0.0
2018-Jun-10 09:00N 47°18' W 002°31'0 0.0
2018-Jun-10 08:30N 47°18' W 002°31'0 0.0
2018-Jun-10 08:00N 47°18' W 002°31'0 0.0
2018-Jun-10 07:30N 47°18' W 002°31'0 0.0
2018-Jun-10 06:58N 47°18' W 002°31'0 0.0
2018-Jun-10 06:30N 47°18' W 002°31'0 0.0
2018-Jun-10 05:55N 47°18' W 002°31'0 0.0
2018-Jun-10 05:30N 47°18' W 002°31'0 0.0
2018-Jun-10 04:59N 47°18' W 002°31'0 0.0
2018-Jun-10 04:28N 47°18' W 002°31'0 0.1
2018-Jun-10 03:57N 47°18' W 002°31'0 0.2
2018-Jun-10 03:28N 47°18' W 002°31'0 0.0
2018-Jun-10 03:00N 47°18' W 002°31'0 0.0
2018-Jun-10 02:30N 47°18' W 002°31'0 0.0
2018-Jun-10 02:00N 47°18' W 002°31'0 0.1
2018-Jun-10 01:29N 47°18' W 002°31'3 6.5
2018-Jun-10 01:00N 47°17' W 002°35'5 9.0
2018-Jun-10 00:30N 47°13' W 002°39'6 9.1
2018-Jun-09 23:52N 47°08' W 002°42'31 7.9
2018-Jun-09 19:58N 46°40' W 003°01'8 3.5
2018-Jun-09 17:49N 46°32' W 002°60'32 1.5
2018-Jun-08 19:51N 47°01' W 003°22'3 8.9
2018-Jun-08 19:29N 47°03' W 003°25'2 3.4
2018-Jun-08 19:00N 47°01' W 003°25'2 3.9
2018-Jun-08 18:30N 46°59' W 003°26'2 3.7
2018-Jun-08 18:00N 46°60' W 003°28'2 3.8
2018-Jun-08 17:31N 46°60' W 003°31'2 3.7
2018-Jun-08 17:00N 46°59' W 003°34'3 3.7
2018-Jun-08 16:07N 46°56' W 003°36'0 3.9
2018-Jun-08 16:01N 46°56' W 003°36'1 1.5
2018-Jun-08 15:21N 46°55' W 003°34'4 4.0
2018-Jun-08 14:27N 46°56' W 003°29'1 2.8
2018-Jun-08 13:55N 46°57' W 003°31'2 3.6
2018-Jun-08 13:23N 46°57' W 003°34'2 3.6
2018-Jun-08 12:55N 46°57' W 003°36'  

Dump ship's entire track history